createdAt,value
2023-05-05T00:02:26.418Z,11.15
2023-05-05T00:04:54.466Z,11.08
2023-05-05T00:07:22.406Z,11.05
2023-05-05T00:09:50.820Z,10.78
2023-05-05T00:12:20.056Z,10.78
2023-05-05T00:14:48.001Z,10.79
2023-05-05T00:17:15.924Z,10.89
2023-05-05T00:19:44.234Z,10.76
2023-05-05T00:22:12.713Z,10.88
2023-05-05T00:24:40.547Z,10.60
2023-05-05T00:27:08.357Z,10.63
2023-05-05T00:29:37.983Z,10.47
2023-05-05T00:32:06.465Z,10.38
2023-05-05T00:34:34.372Z,10.42
2023-05-05T00:37:02.922Z,10.35
2023-05-05T00:39:30.772Z,10.28
2023-05-05T00:41:59.482Z,10.36
2023-05-05T00:44:41.179Z,10.46
2023-05-05T00:47:09.944Z,10.23
2023-05-05T00:49:39.225Z,10.20
2023-05-05T00:52:08.397Z,10.14
2023-05-05T00:54:36.466Z,10.20
2023-05-05T00:57:04.838Z,10.19
2023-05-05T00:59:35.202Z,10.18
2023-05-05T01:02:04.666Z,10.21
2023-05-05T01:04:32.635Z,10.23
2023-05-05T01:07:15.833Z,10.20
2023-05-05T01:09:57.934Z,10.16
2023-05-05T01:12:42.963Z,10.15
2023-05-05T01:15:16.688Z,10.19
2023-05-05T01:17:54.231Z,10.17
2023-05-05T01:20:27.671Z,10.06
2023-05-05T01:23:04.283Z,10.01
2023-05-05T01:26:02.556Z,10.03
2023-05-05T01:28:44.424Z,9.78
2023-05-05T01:31:24.624Z,9.72
2023-05-05T01:34:02.102Z,9.84
2023-05-05T01:36:37.256Z,9.77
2023-05-05T01:39:07.013Z,9.82
2023-05-05T01:41:41.141Z,9.80
2023-05-05T01:44:12.430Z,9.79
2023-05-05T01:46:40.144Z,9.86
2023-05-05T01:49:11.577Z,9.73
2023-05-05T01:51:41.528Z,9.55
2023-05-05T01:54:10.529Z,9.51
2023-05-05T01:56:41.214Z,9.46
2023-05-05T01:59:10.922Z,9.41
2023-05-05T02:01:44.496Z,9.30
2023-05-05T02:04:15.777Z,9.17
2023-05-05T02:06:45.097Z,9.42
2023-05-05T02:09:15.271Z,9.33
2023-05-05T02:11:43.810Z,9.34
2023-05-05T02:14:13.300Z,9.38
2023-05-05T02:16:43.951Z,9.45
2023-05-05T02:19:14.087Z,9.49
2023-05-05T02:21:43.337Z,9.54
2023-05-05T02:24:11.949Z,9.78
2023-05-05T02:26:41.764Z,9.55
2023-05-05T02:29:15.987Z,9.77
2023-05-05T02:31:48.637Z,9.91
2023-05-05T02:34:24.121Z,9.89
2023-05-05T02:36:54.693Z,9.99
2023-05-05T02:39:32.217Z,10.11
2023-05-05T02:42:03.034Z,9.98
2023-05-05T02:44:34.585Z,9.90
2023-05-05T02:47:03.974Z,9.84
2023-05-05T02:49:33.651Z,9.99
2023-05-05T02:52:02.241Z,9.89
2023-05-05T02:54:30.412Z,9.92
2023-05-05T02:56:59.276Z,9.97
2023-05-05T02:59:35.467Z,9.95
2023-05-05T03:02:14.474Z,10.02
2023-05-05T03:04:50.061Z,10.03
2023-05-05T03:07:25.799Z,9.97
2023-05-05T03:10:03.479Z,10.07
2023-05-05T03:12:38.678Z,9.87
2023-05-05T03:15:10.392Z,9.97
2023-05-05T03:17:40.649Z,9.95
2023-05-05T03:20:12.838Z,9.93
2023-05-05T03:22:40.618Z,9.84
2023-05-05T03:25:09.224Z,10.02
2023-05-05T03:27:37.502Z,9.93
2023-05-05T03:30:06.963Z,10.05
2023-05-05T03:32:35.511Z,10.10
2023-05-05T03:35:03.300Z,10.11
2023-05-05T03:37:32.517Z,10.08
2023-05-05T03:40:00.858Z,10.07
2023-05-05T03:42:28.710Z,9.86
2023-05-05T03:44:57.218Z,9.82
2023-05-05T03:47:26.186Z,9.99
2023-05-05T03:49:54.400Z,10.10
2023-05-05T03:52:22.653Z,10.27
2023-05-05T03:54:51.819Z,10.25
2023-05-05T03:57:19.761Z,10.37
2023-05-05T03:59:48.104Z,10.47
2023-05-05T04:02:18.373Z,10.56
2023-05-05T04:04:46.552Z,10.63
2023-05-05T04:07:14.898Z,10.91
2023-05-05T04:09:44.742Z,11.11
2023-05-05T04:12:14.510Z,11.23
2023-05-05T04:14:42.943Z,11.23
2023-05-05T04:17:10.873Z,11.16
2023-05-05T04:19:38.791Z,11.27
2023-05-05T04:22:07.170Z,11.13
2023-05-05T04:24:35.620Z,11.19
2023-05-05T04:27:03.632Z,11.30
2023-05-05T04:29:33.966Z,11.42
2023-05-05T04:32:02.159Z,12.30
2023-05-05T04:34:30.194Z,13.09
2023-05-05T04:36:58.611Z,12.93
2023-05-05T04:39:29.142Z,13.39
2023-05-05T04:41:57.290Z,13.22
2023-05-05T04:44:25.657Z,13.32
2023-05-05T04:46:54.836Z,13.54
2023-05-05T04:49:23.429Z,14.28
2023-05-05T04:51:51.680Z,14.91
2023-05-05T04:54:19.817Z,16.43
2023-05-05T04:56:48.323Z,18.12
2023-05-05T04:59:16.196Z,18.99
2023-05-05T05:01:44.124Z,19.78
2023-05-05T05:04:14.005Z,20.23
2023-05-05T05:06:41.773Z,20.35
2023-05-05T05:09:09.436Z,20.80
2023-05-05T05:11:37.734Z,20.53
2023-05-05T05:14:05.681Z,22.10
2023-05-05T05:16:33.735Z,23.09
2023-05-05T05:19:02.302Z,23.04
2023-05-05T05:21:31.727Z,22.86
2023-05-05T05:23:59.669Z,22.87
2023-05-05T05:26:28.791Z,23.08
2023-05-05T05:28:57.458Z,24.15
2023-05-05T05:31:26.218Z,25.12
2023-05-05T05:33:54.689Z,25.83
2023-05-05T05:36:23.076Z,24.76
2023-05-05T05:38:52.811Z,26.32
2023-05-05T05:41:22.062Z,25.36
2023-05-05T05:43:50.229Z,24.93
2023-05-05T05:46:18.520Z,24.42
2023-05-05T05:48:47.185Z,26.06
2023-05-05T05:51:15.078Z,25.38
2023-05-05T05:53:43.687Z,24.22
2023-05-05T05:56:13.271Z,27.06
2023-05-05T05:58:42.651Z,26.14
2023-05-05T06:01:10.891Z,26.39
2023-05-05T06:03:39.504Z,27.53
2023-05-05T06:06:07.767Z,28.00
2023-05-05T06:08:37.368Z,28.68
2023-05-05T06:11:05.661Z,29.15
2023-05-05T06:13:35.243Z,28.98
2023-05-05T06:16:03.447Z,28.19
2023-05-05T06:18:31.988Z,28.37
2023-05-05T06:21:00.270Z,27.63
2023-05-05T06:23:28.240Z,27.59
2023-05-05T06:25:57.233Z,27.18
2023-05-05T06:28:25.211Z,25.17
2023-05-05T06:30:54.603Z,25.32
2023-05-05T06:33:23.586Z,25.40
2023-05-05T06:35:56.852Z,26.02
2023-05-05T06:38:25.418Z,27.13
2023-05-05T06:40:53.584Z,27.72
2023-05-05T06:43:23.394Z,25.47
2023-05-05T06:45:51.971Z,26.48
2023-05-05T06:48:22.247Z,28.21
2023-05-05T06:50:50.900Z,28.53
2023-05-05T06:53:19.615Z,29.93
2023-05-05T06:55:49.225Z,27.06
2023-05-05T06:58:17.655Z,26.25
2023-05-05T07:00:46.614Z,28.52
2023-05-05T07:03:15.321Z,27.48
2023-05-05T07:05:45.561Z,29.43
2023-05-05T07:08:14.956Z,26.21
2023-05-05T07:10:43.266Z,26.48
2023-05-05T07:13:11.717Z,27.04
2023-05-05T07:15:46.858Z,27.98
2023-05-05T07:18:15.276Z,27.26
2023-05-05T07:20:45.632Z,30.26
2023-05-05T07:23:14.537Z,30.26
2023-05-05T07:25:42.464Z,28.87
2023-05-05T07:28:10.576Z,31.94
2023-05-05T07:30:39.210Z,30.07
2023-05-05T07:33:08.045Z,29.90
2023-05-05T07:35:36.535Z,28.71
2023-05-05T07:38:06.927Z,30.81
2023-05-05T07:40:36.379Z,30.05
2023-05-05T07:43:05.081Z,26.88
2023-05-05T07:45:33.515Z,28.81
2023-05-05T07:48:01.915Z,31.03
2023-05-05T07:50:30.051Z,33.15
2023-05-05T07:53:10.768Z,29.45
2023-05-05T07:55:44.359Z,29.09
2023-05-05T07:58:12.838Z,28.15
2023-05-05T08:00:41.290Z,28.78
2023-05-05T08:03:11.636Z,29.21
2023-05-05T08:05:40.867Z,30.96
2023-05-05T08:08:09.986Z,29.48
2023-05-05T08:10:38.079Z,31.09
2023-05-05T08:13:07.406Z,32.09
2023-05-05T08:15:35.799Z,29.94
2023-05-05T08:18:04.647Z,31.36
2023-05-05T08:20:33.120Z,31.51
2023-05-05T08:23:01.900Z,32.60
2023-05-05T08:25:29.941Z,31.81
2023-05-05T08:27:57.757Z,32.63
2023-05-05T08:30:27.871Z,29.95
2023-05-05T08:32:56.620Z,29.63
2023-05-05T08:35:25.371Z,32.16
2023-05-05T08:37:54.515Z,30.56
2023-05-05T08:40:30.595Z,31.79
2023-05-05T08:42:58.710Z,30.98
2023-05-05T08:45:30.659Z,30.80
2023-05-05T08:48:02.264Z,31.59
2023-05-05T08:50:31.938Z,30.38
2023-05-05T08:53:09.389Z,33.48
2023-05-05T08:55:48.706Z,32.75
2023-05-05T08:58:19.000Z,32.49
2023-05-05T09:00:48.763Z,34.53
2023-05-05T09:03:18.076Z,33.95
2023-05-05T09:05:46.706Z,32.80
2023-05-05T09:08:15.146Z,31.95
2023-05-05T09:10:45.243Z,32.36
2023-05-05T09:13:15.436Z,35.47
2023-05-05T09:15:44.586Z,31.89
2023-05-05T09:18:14.653Z,33.12
2023-05-05T09:20:42.977Z,32.70
2023-05-05T09:23:12.433Z,30.79
2023-05-05T09:25:40.692Z,32.30
2023-05-05T09:28:14.143Z,32.56
2023-05-05T09:30:43.925Z,32.23
2023-05-05T09:33:14.694Z,31.85
2023-05-05T09:35:50.341Z,34.65
2023-05-05T09:38:20.178Z,35.80
2023-05-05T09:40:49.126Z,32.78
2023-05-05T09:43:18.810Z,31.44
2023-05-05T09:45:49.343Z,30.29
2023-05-05T09:48:29.264Z,32.36
2023-05-05T09:50:59.755Z,35.06
2023-05-05T09:53:39.142Z,33.69
2023-05-05T09:56:08.629Z,31.96
2023-05-05T09:58:37.558Z,31.70
2023-05-05T10:01:06.249Z,33.41
2023-05-05T10:03:55.145Z,31.33
2023-05-05T10:06:49.142Z,31.43
2023-05-05T10:09:23.132Z,30.32
2023-05-05T10:11:54.236Z,33.31
2023-05-05T10:14:28.997Z,33.76
2023-05-05T10:17:00.880Z,32.34
2023-05-05T10:19:42.046Z,30.62
2023-05-05T10:22:11.765Z,33.03
2023-05-05T10:24:54.290Z,33.75
2023-05-05T10:27:32.601Z,31.97
2023-05-05T10:30:07.640Z,33.74
2023-05-05T10:32:59.333Z,30.80
2023-05-05T10:35:41.844Z,30.06
2023-05-05T10:38:12.583Z,30.50
2023-05-05T10:40:45.955Z,30.97
2023-05-05T10:43:15.790Z,30.27
2023-05-05T10:45:45.714Z,30.78
2023-05-05T10:48:24.585Z,32.05
2023-05-05T10:50:58.251Z,32.40
2023-05-05T10:53:32.314Z,32.36
2023-05-05T10:56:12.323Z,32.57
2023-05-05T10:58:58.834Z,33.23
2023-05-05T11:01:33.678Z,32.76
2023-05-05T11:04:18.903Z,33.42
2023-05-05T11:07:34.738Z,31.40
2023-05-05T11:10:06.128Z,30.39
2023-05-05T11:12:51.636Z,30.99
2023-05-05T11:15:38.727Z,31.94
2023-05-05T11:18:08.766Z,31.35
2023-05-05T11:21:07.209Z,32.81
2023-05-05T11:23:39.716Z,32.73
2023-05-05T11:26:10.331Z,32.57
2023-05-05T11:29:04.025Z,31.91
2023-05-05T11:31:33.290Z,32.69
2023-05-05T11:34:31.290Z,33.36
2023-05-05T11:37:03.033Z,33.16
2023-05-05T11:39:44.510Z,31.40
2023-05-05T11:42:27.607Z,30.49
2023-05-05T11:44:56.995Z,30.20
2023-05-05T11:47:32.835Z,30.32
2023-05-05T11:50:18.998Z,29.14
2023-05-05T11:52:51.902Z,29.03
2023-05-05T11:55:25.722Z,28.88
2023-05-05T11:57:59.872Z,28.54
2023-05-05T12:00:39.588Z,30.82
2023-05-05T12:03:11.051Z,31.78
2023-05-05T12:05:49.272Z,32.67
2023-05-05T12:08:19.647Z,31.32
2023-05-05T12:10:51.398Z,30.08
2023-05-05T12:13:22.381Z,32.67
2023-05-05T12:15:50.956Z,33.53
2023-05-05T12:18:20.288Z,33.21
2023-05-05T12:20:49.006Z,30.66
2023-05-05T12:23:20.337Z,31.04
2023-05-05T12:25:53.987Z,32.92
2023-05-05T12:28:23.823Z,32.54
2023-05-05T12:31:04.211Z,32.87
2023-05-05T12:33:44.652Z,32.78
2023-05-05T12:36:13.765Z,31.63
2023-05-05T12:38:44.372Z,32.46
2023-05-05T12:41:24.812Z,32.41
2023-05-05T12:43:58.505Z,32.16
2023-05-05T12:46:30.265Z,31.58
2023-05-05T12:49:05.915Z,31.98
2023-05-05T12:51:36.889Z,32.47
2023-05-05T12:54:07.406Z,32.36
2023-05-05T12:56:40.244Z,32.31
2023-05-05T12:59:13.251Z,32.31
2023-05-05T13:01:51.173Z,31.91
2023-05-05T13:04:21.114Z,32.95
2023-05-05T13:06:52.509Z,33.00
2023-05-05T13:09:27.879Z,33.00
2023-05-05T13:11:57.065Z,33.66
2023-05-05T13:14:27.031Z,32.68
2023-05-05T13:16:56.162Z,33.21
2023-05-05T13:19:25.152Z,32.22
2023-05-05T13:21:55.782Z,31.73
2023-05-05T13:24:37.929Z,32.36
2023-05-05T13:27:10.915Z,32.81
2023-05-05T13:29:46.425Z,32.38
2023-05-05T13:32:14.614Z,31.59
2023-05-05T13:34:49.299Z,31.16
2023-05-05T13:37:17.479Z,30.68
2023-05-05T13:39:46.325Z,31.11
2023-05-05T13:42:19.273Z,31.66
2023-05-05T13:44:49.859Z,30.59
2023-05-05T13:47:18.219Z,30.54
2023-05-05T13:49:56.875Z,30.58
2023-05-05T13:52:26.266Z,29.58
2023-05-05T13:54:57.729Z,30.07
2023-05-05T13:57:25.932Z,30.03
2023-05-05T13:59:55.866Z,29.35
2023-05-05T14:02:26.705Z,29.24
2023-05-05T14:04:57.630Z,28.36
2023-05-05T14:07:28.203Z,28.43
2023-05-05T14:09:58.102Z,28.31
2023-05-05T14:12:27.178Z,28.32
2023-05-05T14:15:03.178Z,27.75
2023-05-05T14:17:33.100Z,26.83
2023-05-05T14:20:02.011Z,25.84
2023-05-05T14:22:36.995Z,24.32
2023-05-05T14:25:07.025Z,23.84
2023-05-05T14:27:37.752Z,23.23
2023-05-05T14:30:10.759Z,22.95
2023-05-05T14:32:44.080Z,22.21
2023-05-05T14:35:12.879Z,21.84
2023-05-05T14:37:45.155Z,21.66
2023-05-05T14:40:14.150Z,21.62
2023-05-05T14:42:42.356Z,21.54
2023-05-05T14:45:12.938Z,21.45
2023-05-05T14:47:41.775Z,21.24
2023-05-05T14:50:11.103Z,21.57
2023-05-05T14:52:41.624Z,21.18
2023-05-05T14:55:13.038Z,21.50
2023-05-05T14:57:41.713Z,21.32
2023-05-05T15:00:13.492Z,21.35
2023-05-05T15:02:42.194Z,21.60
2023-05-05T15:05:13.654Z,21.36
2023-05-05T15:07:42.740Z,21.24
2023-05-05T15:10:12.191Z,21.20
2023-05-05T15:12:42.588Z,20.93
2023-05-05T15:15:13.726Z,21.32
2023-05-05T15:17:43.472Z,21.39
2023-05-05T15:20:19.310Z,21.40
2023-05-05T15:22:58.820Z,21.25
2023-05-05T15:25:32.942Z,21.44
2023-05-05T15:28:03.871Z,21.56
2023-05-05T15:30:40.855Z,21.60
2023-05-05T15:33:09.657Z,21.68
2023-05-05T15:35:45.033Z,22.35
2023-05-05T15:38:30.604Z,22.21
2023-05-05T15:41:28.884Z,22.45
2023-05-05T15:44:23.211Z,22.72
2023-05-05T15:47:08.429Z,22.93
2023-05-05T15:49:37.904Z,22.67
2023-05-05T15:52:07.453Z,21.44
2023-05-05T15:54:39.788Z,21.50
2023-05-05T15:57:11.751Z,22.26
2023-05-05T15:59:43.382Z,21.67
2023-05-05T16:02:19.194Z,22.08
2023-05-05T16:04:50.866Z,22.73
2023-05-05T16:07:22.728Z,21.92
2023-05-05T16:09:55.008Z,21.89
2023-05-05T16:12:31.682Z,22.44
2023-05-05T16:15:03.717Z,22.67
2023-05-05T16:17:39.171Z,22.47
2023-05-05T16:20:14.096Z,22.72
2023-05-05T16:22:48.851Z,23.01
2023-05-05T16:25:20.243Z,21.98
2023-05-05T16:27:49.366Z,21.75
2023-05-05T16:30:22.502Z,22.22
2023-05-05T16:32:53.163Z,22.63
2023-05-05T16:35:22.942Z,21.40
2023-05-05T16:37:53.083Z,22.09
2023-05-05T16:40:22.021Z,21.49
2023-05-05T16:42:53.254Z,21.30
2023-05-05T16:45:25.455Z,21.94
2023-05-05T16:47:58.066Z,21.70
2023-05-05T16:50:26.952Z,21.52
2023-05-05T16:52:55.216Z,21.34
2023-05-05T16:55:24.472Z,21.36
2023-05-05T16:57:52.673Z,21.16
2023-05-05T17:00:21.335Z,21.37
2023-05-05T17:02:50.190Z,21.68
2023-05-05T17:05:19.945Z,21.07
2023-05-05T17:07:52.013Z,21.35
2023-05-05T17:10:20.665Z,21.62
2023-05-05T17:12:48.575Z,22.04
2023-05-05T17:15:16.639Z,22.15
2023-05-05T17:17:45.564Z,21.99
2023-05-05T17:20:13.962Z,22.02
2023-05-05T17:22:43.452Z,21.83
2023-05-05T17:25:12.414Z,21.73
2023-05-05T17:27:41.108Z,21.37
2023-05-05T17:30:10.685Z,21.16
2023-05-05T17:32:39.437Z,21.25
2023-05-05T17:35:08.471Z,21.09
2023-05-05T17:37:37.236Z,20.93
2023-05-05T17:40:08.171Z,21.15
2023-05-05T17:42:36.555Z,21.02
2023-05-05T17:45:04.746Z,21.14
2023-05-05T17:47:32.779Z,20.77
2023-05-05T17:50:00.687Z,20.50
2023-05-05T17:52:28.802Z,20.48
2023-05-05T17:54:57.329Z,20.43
2023-05-05T17:57:26.527Z,20.38
2023-05-05T17:59:54.429Z,20.31
2023-05-05T18:02:24.352Z,20.29
2023-05-05T18:04:53.269Z,20.12
2023-05-05T18:07:22.232Z,20.14
2023-05-05T18:09:50.735Z,20.05
2023-05-05T18:12:19.447Z,20.10
2023-05-05T18:14:49.011Z,19.88
2023-05-05T18:17:38.051Z,19.84
2023-05-05T18:20:07.138Z,19.97
2023-05-05T18:22:35.606Z,19.85
2023-05-05T18:27:33.710Z,19.83
2023-05-05T18:30:05.223Z,19.99
2023-05-05T18:32:33.605Z,19.77
2023-05-05T18:35:01.771Z,20.06
2023-05-05T18:37:30.325Z,20.03
2023-05-05T18:39:58.381Z,19.94
2023-05-05T18:42:26.856Z,19.75
2023-05-05T18:44:55.573Z,19.70
2023-05-05T18:47:25.032Z,19.85
2023-05-05T18:49:53.373Z,19.57
2023-05-05T18:52:22.410Z,19.78
2023-05-05T18:54:53.970Z,19.53
2023-05-05T18:57:22.845Z,19.39
2023-05-05T18:59:51.498Z,19.27
2023-05-05T19:02:20.010Z,19.19
2023-05-05T19:04:49.827Z,19.16
2023-05-05T19:07:33.776Z,18.96
2023-05-05T19:10:03.527Z,19.00
2023-05-05T19:12:32.042Z,19.02
2023-05-05T19:15:00.388Z,19.03
2023-05-05T19:17:29.730Z,18.93
2023-05-05T19:19:59.170Z,18.99
2023-05-05T19:22:27.149Z,18.89
2023-05-05T19:24:55.473Z,19.02
2023-05-05T19:27:23.611Z,18.86
2023-05-05T19:29:53.170Z,19.11
2023-05-05T19:32:22.722Z,19.05
2023-05-05T19:34:54.600Z,19.12
2023-05-05T19:37:24.371Z,19.14
2023-05-05T19:39:52.585Z,18.87
2023-05-05T19:42:21.694Z,18.19
2023-05-05T19:44:49.654Z,18.03
2023-05-05T19:47:18.008Z,18.27
2023-05-05T19:49:46.575Z,18.26
2023-05-05T19:52:18.609Z,18.00
2023-05-05T19:54:52.071Z,17.82
2023-05-05T19:57:23.412Z,17.59
2023-05-05T19:59:52.076Z,17.59
2023-05-05T20:02:27.165Z,17.51
2023-05-05T20:04:56.146Z,17.46
2023-05-05T20:07:24.949Z,17.39
2023-05-05T20:09:54.989Z,17.49
2023-05-05T20:12:23.765Z,17.07
2023-05-05T20:14:52.683Z,17.12
2023-05-05T20:17:21.546Z,16.92
2023-05-05T20:19:49.622Z,17.07
2023-05-05T20:22:18.287Z,17.03
2023-05-05T20:24:46.273Z,16.95
2023-05-05T20:27:15.761Z,17.04
2023-05-05T20:29:44.262Z,17.01
2023-05-05T20:32:12.186Z,16.75
2023-05-05T20:34:40.083Z,16.75
2023-05-05T20:37:08.687Z,16.89
2023-05-05T20:39:37.340Z,16.68
2023-05-05T20:42:05.496Z,16.75
2023-05-05T20:44:35.200Z,16.53
2023-05-05T20:47:03.168Z,16.62
2023-05-05T20:49:31.991Z,16.77
2023-05-05T20:52:00.652Z,16.62
2023-05-05T20:54:33.923Z,16.77
2023-05-05T20:57:03.281Z,16.87
2023-05-05T20:59:31.081Z,16.80
2023-05-05T21:02:00.429Z,16.52
2023-05-05T21:04:28.781Z,16.77
2023-05-05T21:06:57.518Z,16.59
2023-05-05T21:09:26.534Z,16.68
2023-05-05T21:11:54.989Z,16.75
2023-05-05T21:14:23.479Z,16.54
2023-05-05T21:16:52.107Z,16.71
2023-05-05T21:19:22.169Z,16.63
2023-05-05T21:21:51.420Z,16.77
2023-05-05T21:24:19.739Z,16.72
2023-05-05T21:26:48.272Z,16.78
2023-05-05T21:29:16.143Z,16.81
2023-05-05T21:31:44.168Z,16.81
2023-05-05T21:34:12.939Z,16.83
2023-05-05T21:36:42.907Z,16.80
2023-05-05T21:39:11.945Z,16.87
2023-05-05T21:41:39.944Z,16.86
2023-05-05T21:44:08.302Z,16.76
2023-05-05T21:46:36.316Z,16.82
2023-05-05T21:49:14.222Z,16.83
2023-05-05T21:51:45.875Z,16.75
2023-05-05T21:54:14.563Z,16.61
2023-05-05T21:56:42.683Z,16.65
2023-05-05T21:59:11.120Z,16.67
2023-05-05T22:01:39.560Z,16.60
2023-05-05T22:04:08.585Z,16.64
2023-05-05T22:06:36.635Z,16.64
2023-05-05T22:09:06.208Z,16.54
2023-05-05T22:11:34.600Z,16.47
2023-05-05T22:14:02.885Z,16.44
2023-05-05T22:16:31.287Z,16.36
2023-05-05T22:18:59.687Z,16.21
2023-05-05T22:21:28.236Z,16.22
2023-05-05T22:23:56.630Z,16.20
2023-05-05T22:26:26.049Z,16.35
2023-05-05T22:28:55.795Z,16.31
2023-05-05T22:31:24.080Z,16.36
2023-05-05T22:33:51.995Z,16.22
2023-05-05T22:36:19.944Z,16.13
2023-05-05T22:38:48.360Z,16.22
2023-05-05T22:41:16.627Z,16.24
2023-05-05T22:43:47.405Z,16.19
2023-05-05T22:46:15.679Z,16.17
2023-05-05T22:48:43.588Z,16.19
2023-05-05T22:51:11.617Z,16.14
2023-05-05T22:53:40.594Z,16.23
2023-05-05T22:56:09.040Z,16.26
2023-05-05T22:58:37.153Z,16.27
2023-05-05T23:01:07.912Z,16.23
2023-05-05T23:03:35.870Z,16.33
2023-05-05T23:06:03.809Z,16.14
2023-05-05T23:08:32.108Z,16.20
2023-05-05T23:11:01.722Z,16.25
2023-05-05T23:13:30.135Z,16.21
2023-05-05T23:15:58.184Z,16.00
2023-05-05T23:18:27.457Z,16.12
2023-05-05T23:20:55.880Z,16.01
2023-05-05T23:23:23.723Z,16.01
2023-05-05T23:25:51.998Z,15.99
2023-05-05T23:28:20.668Z,15.99
2023-05-05T23:30:48.481Z,16.01
2023-05-05T23:33:16.550Z,15.95
2023-05-05T23:35:46.259Z,16.10
2023-05-05T23:38:14.147Z,16.00
2023-05-05T23:40:42.022Z,16.13
2023-05-05T23:43:11.904Z,16.13
2023-05-05T23:45:40.960Z,16.04
2023-05-05T23:48:08.928Z,15.92
2023-05-05T23:50:37.242Z,16.00
2023-05-05T23:53:06.453Z,16.07
2023-05-05T23:55:34.376Z,15.98
2023-05-05T23:58:02.896Z,16.04
